createdAt,value
2022-12-24T00:03:24.900Z,2.20
2022-12-24T00:13:30.207Z,2.10
2022-12-24T00:23:34.142Z,2.20
2022-12-24T00:33:39.388Z,2.20
2022-12-24T00:43:43.143Z,2.20
2022-12-24T00:53:48.561Z,2.10
2022-12-24T01:03:52.816Z,2.10
2022-12-24T01:13:59.008Z,2.20
2022-12-24T01:24:02.708Z,2.10
2022-12-24T01:34:08.097Z,2.30
2022-12-24T01:44:37.126Z,2.50
2022-12-24T01:54:45.928Z,2.70
2022-12-24T02:04:57.528Z,2.80
2022-12-24T02:15:03.732Z,3.00
2022-12-24T02:25:37.500Z,3.10
2022-12-24T02:35:50.914Z,3.30
2022-12-24T02:46:00.212Z,3.40
2022-12-24T02:56:43.151Z,3.40
2022-12-24T03:06:59.375Z,3.40
2022-12-24T03:17:05.640Z,3.50
2022-12-24T03:27:11.492Z,3.50
2022-12-24T03:37:16.781Z,3.50
2022-12-24T03:47:20.792Z,3.50
2022-12-24T03:57:25.883Z,3.20
2022-12-24T04:07:29.749Z,3.10
2022-12-24T04:17:35.565Z,2.90
2022-12-24T04:27:39.343Z,3.20
2022-12-24T04:37:44.498Z,2.50
2022-12-24T04:47:48.205Z,2.40
2022-12-24T04:57:53.534Z,2.50
2022-12-24T05:07:57.284Z,3.30
2022-12-24T05:18:02.658Z,2.30
2022-12-24T05:28:06.566Z,2.10
2022-12-24T05:38:11.828Z,2.00
2022-12-24T05:48:15.601Z,2.00
2022-12-24T05:58:20.800Z,2.10
2022-12-24T06:08:24.580Z,2.20
2022-12-24T06:18:30.946Z,2.20
2022-12-24T06:28:37.208Z,2.20
2022-12-24T06:38:42.435Z,2.10
2022-12-24T06:48:46.761Z,2.00
2022-12-24T06:58:52.210Z,2.00
2022-12-24T07:08:56.099Z,2.30
2022-12-24T07:19:01.344Z,2.60
2022-12-24T07:29:04.956Z,2.80
2022-12-24T07:39:10.192Z,3.00
2022-12-24T07:49:14.393Z,3.20
2022-12-24T07:59:19.655Z,3.40
2022-12-24T08:09:23.635Z,3.80
2022-12-24T08:19:28.871Z,4.30
2022-12-24T08:29:32.818Z,4.60
2022-12-24T08:39:37.918Z,4.60
2022-12-24T08:49:41.832Z,5.80
2022-12-24T08:59:46.973Z,6.20
2022-12-24T09:09:50.841Z,9.30
2022-12-24T09:19:55.957Z,8.80
2022-12-24T09:29:59.866Z,9.10
2022-12-24T09:40:05.540Z,7.90
2022-12-24T09:50:28.614Z,7.10
2022-12-24T10:00:42.098Z,6.80
2022-12-24T10:10:56.304Z,6.70
2022-12-24T10:21:12.107Z,7.00
2022-12-24T10:31:16.503Z,6.90
2022-12-24T10:41:21.844Z,7.20
2022-12-24T10:51:35.732Z,7.60
2022-12-24T11:01:49.336Z,7.30
2022-12-24T11:11:53.275Z,7.40
2022-12-24T11:22:04.591Z,8.20
2022-12-24T11:32:18.813Z,7.80
2022-12-24T11:42:32.973Z,7.40
2022-12-24T11:52:37.251Z,7.10
2022-12-24T12:02:44.864Z,7.00
2022-12-24T12:12:58.340Z,7.00
2022-12-24T12:23:13.859Z,6.50
2022-12-24T12:33:25.755Z,6.30
2022-12-24T12:44:21.628Z,5.90
2022-12-24T12:54:50.951Z,5.80
2022-12-24T13:05:25.731Z,5.60
2022-12-24T13:16:25.635Z,5.50
2022-12-24T13:26:30.849Z,5.40
2022-12-24T13:37:05.250Z,5.30
2022-12-24T13:47:32.530Z,5.30
2022-12-24T13:57:41.744Z,5.30
2022-12-24T14:07:50.367Z,5.10
2022-12-24T14:17:54.428Z,5.10
2022-12-24T14:28:06.491Z,5.00
2022-12-24T14:38:18.980Z,4.80
2022-12-24T14:48:34.632Z,4.80
2022-12-24T14:58:40.925Z,4.80
2022-12-24T15:08:51.336Z,4.90
2022-12-24T15:18:58.430Z,4.90
2022-12-24T15:29:15.452Z,5.00
2022-12-24T15:39:19.271Z,5.00
2022-12-24T15:49:25.247Z,5.00
2022-12-24T15:59:36.996Z,4.90
2022-12-24T16:09:46.858Z,4.70
2022-12-24T16:19:53.470Z,4.60
2022-12-24T16:29:59.306Z,4.50
2022-12-24T16:40:03.130Z,4.40
2022-12-24T16:50:12.530Z,4.40
2022-12-24T17:00:20.727Z,4.40
2022-12-24T17:10:26.001Z,4.40
2022-12-24T17:20:29.780Z,4.30
2022-12-24T17:30:34.977Z,4.20
2022-12-24T17:40:38.885Z,4.10
2022-12-24T17:50:44.250Z,3.80
2022-12-24T18:00:49.828Z,3.40
2022-12-24T18:10:55.071Z,3.40
2022-12-24T18:20:58.741Z,3.70
2022-12-24T18:31:07.227Z,3.70
2022-12-24T18:41:14.003Z,3.40
2022-12-24T18:51:22.331Z,3.20
2022-12-24T19:01:29.084Z,2.90
2022-12-24T19:11:36.156Z,3.00
2022-12-24T19:21:39.882Z,2.70
2022-12-24T19:31:47.553Z,2.80
2022-12-24T19:41:51.523Z,3.30
2022-12-24T19:51:56.732Z,3.50
2022-12-24T20:02:00.742Z,3.30
2022-12-24T20:12:06.826Z,3.10
2022-12-24T20:22:10.487Z,3.00
2022-12-24T20:32:15.725Z,3.00
2022-12-24T20:42:20.792Z,3.20
2022-12-24T20:52:25.941Z,3.30
2022-12-24T21:02:30.109Z,3.30
2022-12-24T21:12:52.408Z,3.40
2022-12-24T21:23:00.815Z,3.30
2022-12-24T21:33:06.664Z,3.20
2022-12-24T21:43:10.477Z,3.20
2022-12-24T21:53:38.143Z,3.00
2022-12-24T22:03:43.053Z,3.10
2022-12-24T22:13:48.204Z,3.00
2022-12-24T22:23:52.315Z,2.90
2022-12-24T22:33:57.620Z,3.00
2022-12-24T22:44:01.597Z,3.10
2022-12-24T22:54:07.409Z,3.10
2022-12-24T23:04:12.875Z,3.10
2022-12-24T23:14:38.401Z,2.90
2022-12-24T23:24:42.260Z,2.90
2022-12-24T23:34:47.530Z,2.90
2022-12-24T23:44:52.425Z,2.90
2022-12-24T23:54:57.668Z,2.90
